Time;durP1;ratioP1;P1;durP2;ratioP2;P2;SDS_P1;SDS_P2;PMS_P1;PMS_P2;Temp;Humidity;BMP_temperature;BMP_pressure;BME280_temperature;BME280_humidity;BME280_pressure;Samples;Min_cycle;Max_cycle;Signal;HPM_P1;HPM_P2
2021/12/22 00:00:55;;;;;;;29.10;13.82;;;-0.10;99.90;;;;;;5074018;28;20070;-80
2021/12/22 00:03:23;;;;;;;28.15;13.57;;;-0.20;99.90;;;;;;5073876;28;20469;-81
2021/12/22 00:05:50;;;;;;;30.52;13.77;;;-0.20;99.90;;;;;;5072612;28;20033;-81
2021/12/22 00:08:17;;;;;;;34.38;14.00;;;-0.10;99.90;;;;;;5073737;28;20036;-80
2021/12/22 00:10:46;;;;;;;24.70;13.77;;;-0.10;99.90;;;;;;5072507;28;20047;-80
2021/12/22 00:13:13;;;;;;;24.40;13.30;;;-0.20;99.90;;;;;;5073550;28;20036;-80
2021/12/22 00:15:38;;;;;;;28.90;13.63;;;-0.20;99.90;;;;;;5073743;28;20124;-80
2021/12/22 00:18:05;;;;;;;28.27;13.38;;;-0.20;99.90;;;;;;5073531;28;20115;-80
2021/12/22 00:20:31;;;;;;;30.45;13.60;;;-0.10;99.90;;;;;;5073608;28;20127;-80
2021/12/22 00:22:57;;;;;;;24.52;12.60;;;-0.10;99.90;;;;;;5072207;28;20116;-80
2021/12/22 00:25:25;;;;;;;27.30;14.25;;;-0.10;99.90;;;;;;5073233;28;20029;-80
2021/12/22 00:27:52;;;;;;;27.55;13.60;;;-0.10;99.90;;;;;;5071807;28;20123;-80
2021/12/22 00:30:18;;;;;;;33.58;13.85;;;-0.20;99.90;;;;;;5075934;28;20035;-81
2021/12/22 00:32:51;;;;;;;28.77;14.48;;;-0.20;99.90;;;;;;5077041;28;20028;-81
2021/12/22 00:35:20;;;;;;;29.05;13.45;;;-0.30;99.90;;;;;;5075995;28;20370;-80
2021/12/22 00:37:45;;;;;;;30.70;13.32;;;-0.50;99.90;;;;;;5071970;28;20095;-79
2021/12/22 00:40:11;;;;;;;23.73;13.27;;;-0.40;99.90;;;;;;5073466;28;20178;-80
2021/12/22 00:42:37;;;;;;;28.85;14.25;;;-0.40;99.90;;;;;;5071908;28;20029;-80
2021/12/22 00:45:03;;;;;;;23.95;13.10;;;-0.50;99.90;;;;;;5073216;28;20028;-80
2021/12/22 00:47:30;;;;;;;24.50;13.20;;;-0.50;99.90;;;;;;5071768;28;20534;-80
2021/12/22 00:49:59;;;;;;;26.60;13.10;;;-0.50;99.90;;;;;;5072956;28;20178;-80
2021/12/22 00:52:25;;;;;;;25.58;13.55;;;-0.50;99.90;;;;;;5073350;28;20062;-80
2021/12/22 00:54:51;;;;;;;26.13;13.35;;;-0.50;99.90;;;;;;5073061;28;20032;-80
2021/12/22 00:57:17;;;;;;;27.45;13.63;;;-0.50;99.90;;;;;;5071460;28;20539;-81
2021/12/22 00:59:45;;;;;;;27.77;12.90;;;-0.50;99.90;;;;;;5073040;28;20036;-80
2021/12/22 01:02:13;;;;;;;28.52;13.45;;;-0.40;99.90;;;;;;5073058;28;20033;-80
2021/12/22 01:04:39;;;;;;;25.88;12.82;;;-0.40;99.90;;;;;;5072865;28;20025;-79
2021/12/22 01:07:06;;;;;;;28.30;13.90;;;-0.40;99.90;;;;;;5073042;28;20056;-79
2021/12/22 01:09:32;;;;;;;30.20;15.07;;;-0.40;99.90;;;;;;5072433;28;20365;-75
2021/12/22 01:11:58;;;;;;;26.48;14.18;;;-0.40;99.90;;;;;;5072995;28;20078;-80
2021/12/22 01:14:24;;;;;;;29.75;14.13;;;-0.30;99.90;;;;;;5071427;28;20021;-80
2021/12/22 01:16:54;;;;;;;30.58;13.80;;;-0.40;99.90;;;;;;5072941;28;20104;-80
2021/12/22 01:19:31;;;;;;;28.27;14.50;;;-0.40;99.90;;;;;;5072630;28;20066;-81
2021/12/22 01:22:05;;;;;;;31.55;14.27;;;-0.50;99.90;;;;;;5072772;28;20036;-80
2021/12/22 01:24:34;;;;;;;29.08;13.70;;;-0.60;99.90;;;;;;5072552;28;20037;-80
2021/12/22 01:27:10;;;;;;;26.38;13.98;;;-0.50;99.90;;;;;;5072524;28;20032;-80
2021/12/22 01:29:38;;;;;;;23.85;13.40;;;-0.40;99.90;;;;;;5072527;28;20048;-81
2021/12/22 01:32:04;;;;;;;30.95;14.10;;;-0.50;99.90;;;;;;5072811;28;20016;-81
2021/12/22 01:34:30;;;;;;;23.60;13.68;;;-0.50;99.90;;;;;;5054632;28;20036;-81
2021/12/22 01:36:57;;;;;;;27.50;15.05;;;-0.50;99.90;;;;;;5072755;28;20025;-80
2021/12/22 01:39:23;;;;;;;27.83;12.70;;;-0.50;99.90;;;;;;5071028;28;20032;-80
2021/12/22 01:41:48;;;;;;;28.65;12.77;;;-0.70;99.90;;;;;;5072656;28;20078;-80
2021/12/22 01:44:28;;;;;;;38.17;14.82;;;-0.80;99.90;;;;;;5071320;28;20093;-81
2021/12/22 01:49:59;;;;;;;24.08;14.30;;;-0.70;99.90;;;;;;5072631;28;20033;-81
2021/12/22 01:52:25;;;;;;;30.15;14.50;;;-0.80;99.90;;;;;;5072943;28;20119;-81
2021/12/22 01:55:02;;;;;;;27.90;14.23;;;-0.90;99.90;;;;;;5070837;28;20075;-76
2021/12/22 01:57:28;;;;;;;25.23;13.70;;;-0.80;99.90;;;;;;5072226;28;20358;-80
2021/12/22 01:59:54;;;;;;;26.83;14.80;;;-0.70;99.90;;;;;;5071104;28;20132;-79
2021/12/22 02:02:20;;;;;;;25.05;12.90;;;-0.70;99.90;;;;;;5054629;28;20036;-80
2021/12/22 02:04:46;;;;;;;27.30;14.63;;;-0.70;99.90;;;;;;5071190;28;20377;-80
2021/12/22 02:07:14;;;;;;;28.35;14.40;;;-0.80;99.90;;;;;;5072202;28;20032;-80
2021/12/22 02:12:27;;;;;;;28.67;13.70;;;-0.60;99.90;;;;;;5076208;28;20045;-80
2021/12/22 02:14:53;;;;;;;34.35;13.95;;;-0.70;99.90;;;;;;5074660;28;20099;-79
2021/12/22 02:17:19;;;;;;;26.23;14.88;;;-0.70;99.90;;;;;;5075898;28;20583;-80
2021/12/22 02:19:46;;;;;;;30.00;12.75;;;-0.60;99.90;;;;;;5066766;28;20393;-80
2021/12/22 02:22:13;;;;;;;26.73;13.55;;;-0.70;99.90;;;;;;5055520;28;20037;-80
2021/12/22 02:24:44;;;;;;;29.70;14.68;;;-0.80;99.90;;;;;;5055741;28;20409;-80
2021/12/22 02:27:19;;;;;;;24.02;13.70;;;-0.90;99.90;;;;;;5072369;28;20044;-79
2021/12/22 02:29:47;;;;;;;23.00;13.30;;;-0.90;99.90;;;;;;5075989;28;20040;-80
2021/12/22 02:32:47;;;;;;;27.20;14.20;;;-0.90;99.90;;;;;;5075918;28;20121;-81
2021/12/22 02:35:03;;;;;;;27.52;12.55;;;-0.90;99.90;;;;;;5075408;28;20066;-80
2021/12/22 02:37:30;;;;;;;24.27;13.35;;;-0.90;99.90;;;;;;5075378;28;20040;-80
2021/12/22 02:40:10;;;;;;;28.90;13.80;;;-0.90;99.90;;;;;;5075540;28;20051;-79
2021/12/22 02:42:37;;;;;;;23.38;13.82;;;-0.90;99.90;;;;;;5075640;28;20074;-80
2021/12/22 02:45:12;;;;;;;25.15;13.25;;;-0.90;99.90;;;;;;5075369;28;20366;-80
2021/12/22 02:47:38;;;;;;;30.15;13.82;;;-0.90;99.90;;;;;;5074417;28;20028;-79
2021/12/22 02:50:05;;;;;;;28.92;13.20;;;-0.90;99.90;;;;;;5075532;28;20109;-80
2021/12/22 02:52:39;;;;;;;23.33;12.25;;;-0.90;99.90;;;;;;5075214;28;20064;-80
2021/12/22 02:55:05;;;;;;;29.80;13.45;;;-0.90;99.90;;;;;;5073978;28;20111;-78
2021/12/22 02:57:42;;;;;;;30.55;14.18;;;-0.90;99.90;;;;;;5075396;28;20070;-80
2021/12/22 03:03:17;;;;;;;23.42;12.10;;;-1.00;99.90;;;;;;5065700;28;20043;-78
2021/12/22 03:05:42;;;;;;;;;;;-1.00;99.90;;;;;;5075419;28;20056;-79
2021/12/22 03:08:08;;;;;;;30.25;12.63;;;-1.00;99.90;;;;;;5074981;28;19993;-80
2021/12/22 03:10:35;;;;;;;32.33;13.02;;;-1.00;99.90;;;;;;5075178;28;20040;-80
2021/12/22 03:13:03;;;;;;;23.83;12.13;;;-1.10;99.90;;;;;;5075027;28;20090;-79
2021/12/22 03:15:30;;;;;;;25.42;12.43;;;-1.20;99.90;;;;;;5074926;28;20028;-80
2021/12/22 03:17:56;;;;;;;24.67;12.77;;;-1.30;99.90;;;;;;5074924;28;20025;-80
2021/12/22 03:20:22;;;;;;;33.38;14.95;;;-1.10;99.90;;;;;;5072963;28;20507;-80
2021/12/22 03:22:48;;;;;;;24.58;13.23;;;-1.10;99.90;;;;;;5074757;28;20032;-80
2021/12/22 03:25:16;;;;;;;23.55;13.80;;;-1.10;99.90;;;;;;5074591;28;20021;-79
2021/12/22 03:27:52;;;;;;;24.45;12.82;;;-1.10;99.90;;;;;;5074532;28;20055;-80
2021/12/22 03:30:21;;;;;;;24.52;12.88;;;-1.10;99.90;;;;;;5074485;28;20431;-80
2021/12/22 03:32:46;;;;;;;24.42;12.55;;;-1.30;99.90;;;;;;5073427;28;20428;-79
2021/12/22 03:35:17;;;;;;;22.30;13.38;;;-1.30;99.90;;;;;;5074310;28;20028;-79
2021/12/22 03:37:52;;;;;;;27.08;13.32;;;-1.30;99.90;;;;;;5074266;28;20481;-80
2021/12/22 03:40:20;;;;;;;25.83;12.90;;;-1.30;99.90;;;;;;5074379;28;20036;-80
2021/12/22 03:42:47;;;;;;;23.02;13.18;;;-1.30;99.90;;;;;;5073147;28;20020;-79
2021/12/22 03:45:13;;;;;;;24.65;12.38;;;-1.30;99.90;;;;;;5074383;28;20071;-80
2021/12/22 03:47:39;;;;;;;25.23;13.75;;;-1.30;99.90;;;;;;5074201;28;20481;-80
2021/12/22 03:50:05;;;;;;;35.42;13.30;;;-1.40;99.90;;;;;;5073877;28;20499;-80
2021/12/22 03:52:31;;;;;;;27.08;12.65;;;-1.40;99.90;;;;;;5074170;28;20044;-79
2021/12/22 03:54:58;;;;;;;27.25;13.13;;;-1.30;99.90;;;;;;5074380;28;20025;-80
2021/12/22 03:57:28;;;;;;;29.67;14.27;;;-1.30;99.90;;;;;;5074038;28;20081;-79
2021/12/22 03:59:56;;;;;;;36.85;15.30;;;-1.10;99.90;;;;;;5074060;28;20496;-80
2021/12/22 04:02:22;;;;;;;30.38;13.98;;;-1.00;99.90;;;;;;5073757;28;20024;-80
2021/12/22 04:04:50;;;;;;;30.98;14.48;;;-1.10;99.90;;;;;;5073813;28;20037;-80
2021/12/22 04:07:16;;;;;;;32.97;13.65;;;-1.20;99.90;;;;;;5073663;28;20469;-81
2021/12/22 04:09:42;;;;;;;31.42;14.35;;;-1.20;99.90;;;;;;5073764;28;20055;-79
2021/12/22 04:12:08;;;;;;;29.92;14.52;;;-1.30;99.90;;;;;;5072538;28;20115;-81
2021/12/22 04:14:34;;;;;;;31.40;13.45;;;-1.20;99.90;;;;;;5073738;28;20023;-80
2021/12/22 04:17:00;;;;;;;27.58;12.82;;;-1.20;99.90;;;;;;5072429;28;20037;-80
2021/12/22 04:19:25;;;;;;;28.08;14.60;;;-1.30;99.90;;;;;;5073274;28;20028;-80
2021/12/22 04:21:51;;;;;;;30.20;14.93;;;-1.20;99.90;;;;;;5072367;28;20033;-80
2021/12/22 04:24:19;;;;;;;23.77;13.57;;;-1.20;99.90;;;;;;5073525;28;20365;-80
2021/12/22 04:26:45;;;;;;;29.85;14.50;;;-1.20;99.90;;;;;;5073395;28;20491;-80
2021/12/22 04:29:11;;;;;;;27.52;13.50;;;-1.30;99.90;;;;;;5073169;28;20060;-80
2021/12/22 04:31:38;;;;;;;27.52;14.35;;;-1.40;99.90;;;;;;5073098;28;20052;-78
2021/12/22 04:34:07;;;;;;;31.40;13.82;;;-1.40;99.90;;;;;;5073269;28;20036;-80
2021/12/22 04:36:37;;;;;;;22.52;12.90;;;-1.30;99.90;;;;;;5073351;28;20060;-80
2021/12/22 04:39:06;;;;;;;28.17;14.55;;;-1.40;99.90;;;;;;5073142;28;20382;-80
2021/12/22 04:41:32;;;;;;;25.15;12.88;;;-1.30;99.90;;;;;;5073403;28;20030;-77
2021/12/22 04:43:58;;;;;;;31.63;14.40;;;-1.30;99.90;;;;;;5073156;28;20043;-79
2021/12/22 04:46:24;;;;;;;24.15;13.73;;;-1.30;99.90;;;;;;5072046;28;20115;-80
2021/12/22 04:48:50;;;;;;;33.20;14.93;;;-1.40;99.90;;;;;;5072735;28;20021;-80
2021/12/22 04:51:28;;;;;;;31.23;14.32;;;-1.30;99.90;;;;;;5073047;28;20384;-81
2021/12/22 04:54:04;;;;;;;36.00;14.35;;;-1.30;99.90;;;;;;5073495;28;20392;-80
2021/12/22 04:56:30;;;;;;;29.63;15.77;;;-1.40;99.90;;;;;;5071962;28;20039;-80
2021/12/22 04:58:56;;;;;;;32.22;14.30;;;-1.50;99.90;;;;;;5072947;28;20021;-80
2021/12/22 05:01:22;;;;;;;34.47;14.30;;;-1.40;99.90;;;;;;5071484;28;20489;-80
2021/12/22 05:03:47;;;;;;;30.88;14.70;;;-1.40;99.90;;;;;;5071417;28;20041;-80
2021/12/22 05:06:13;;;;;;;27.63;14.75;;;-1.30;99.90;;;;;;5071793;28;20023;-80
2021/12/22 05:08:39;;;;;;;36.65;16.15;;;-1.30;99.90;;;;;;5072618;28;20043;-80
2021/12/22 05:11:05;;;;;;;29.75;15.43;;;-1.20;99.90;;;;;;5071782;28;20029;-79
2021/12/22 05:13:33;;;;;;;32.15;15.23;;;-1.20;99.90;;;;;;5072737;28;20032;-80
2021/12/22 05:15:59;;;;;;;27.40;15.70;;;-1.10;99.90;;;;;;5072993;28;20070;-80
2021/12/22 05:18:37;;;;;;;68.32;27.70;;;-1.20;99.90;;;;;;5072360;28;20052;-80
2021/12/22 05:21:03;;;;;;;57.65;24.70;;;-1.20;99.90;;;;;;5073107;28;20087;-80
2021/12/22 05:23:29;;;;;;;42.55;19.02;;;-1.10;99.90;;;;;;5072816;28;20048;-81
2021/12/22 05:25:54;;;;;;;56.25;23.98;;;-1.10;99.90;;;;;;5072647;28;20086;-81
2021/12/22 05:28:20;;;;;;;38.00;17.92;;;-1.20;99.90;;;;;;5072545;28;20025;-81
2021/12/22 05:30:47;;;;;;;42.28;18.50;;;-1.10;99.90;;;;;;5072505;28;20400;-81
2021/12/22 05:33:13;;;;;;;35.30;17.40;;;-1.00;99.90;;;;;;5071577;28;20433;-79
2021/12/22 05:35:40;;;;;;;41.05;17.65;;;-1.10;99.90;;;;;;5072767;28;20161;-80
2021/12/22 05:38:05;;;;;;;30.75;16.38;;;-1.20;99.90;;;;;;5072458;28;20051;-80
2021/12/22 05:40:31;;;;;;;39.60;18.10;;;-1.20;99.90;;;;;;5072584;28;20064;-81
2021/12/22 05:42:57;;;;;;;28.38;15.27;;;-0.90;99.90;;;;;;5072803;28;20028;-81
2021/12/22 05:45:25;;;;;;;27.42;15.18;;;-1.00;99.90;;;;;;5075731;28;20017;-81
2021/12/22 05:47:52;;;;;;;33.08;16.40;;;-1.30;99.90;;;;;;5076585;28;20025;-80
2021/12/22 05:50:19;;;;;;;34.50;16.60;;;-1.30;99.90;;;;;;5076786;28;20044;-79
2021/12/22 05:52:45;;;;;;;29.73;15.77;;;-1.40;99.90;;;;;;5075414;28;20025;-81
2021/12/22 05:55:11;;;;;;;35.72;16.08;;;-1.40;99.90;;;;;;5076298;28;20115;-80
2021/12/22 05:57:36;;;;;;;35.85;17.25;;;-1.70;99.90;;;;;;5076228;28;20024;-81
2021/12/22 06:00:05;;;;;;;35.47;17.13;;;-1.70;99.90;;;;;;5076006;28;20033;-80
2021/12/22 06:02:38;;;;;;;35.90;17.20;;;-1.60;99.90;;;;;;5076271;28;20059;-80
2021/12/22 06:05:04;;;;;;;29.23;15.63;;;-1.60;99.90;;;;;;5074994;28;20032;-80
2021/12/22 06:07:29;;;;;;;38.40;16.60;;;-1.80;99.90;;;;;;5076093;28;20111;-80
2021/12/22 06:09:55;;;;;;;38.67;17.95;;;-1.80;99.90;;;;;;5075844;28;20107;-80
2021/12/22 06:12:21;;;;;;;31.13;16.00;;;-1.60;99.90;;;;;;5076001;28;20143;-80
2021/12/22 06:14:47;;;;;;;29.95;15.70;;;-1.60;99.90;;;;;;5075786;28;20024;-78
2021/12/22 06:17:13;;;;;;;33.45;16.23;;;-1.60;99.90;;;;;;5075999;28;20035;-80
2021/12/22 06:19:39;;;;;;;34.13;16.75;;;-1.60;99.90;;;;;;5075652;28;20040;-80
2021/12/22 06:22:05;;;;;;;35.55;15.77;;;-1.70;99.90;;;;;;5076175;28;20051;-80
2021/12/22 06:24:30;;;;;;;35.72;15.45;;;-1.60;99.90;;;;;;5075670;28;20032;-79
2021/12/22 06:26:57;;;;;;;36.35;15.95;;;-1.50;99.90;;;;;;5075711;28;20028;-80
2021/12/22 06:29:24;;;;;;;37.30;16.10;;;-1.60;99.90;;;;;;5075355;28;20041;-80
2021/12/22 06:31:51;;;;;;;36.83;16.92;;;-1.60;99.90;;;;;;5075758;28;20074;-80
2021/12/22 06:34:17;;;;;;;38.72;17.20;;;-1.60;99.90;;;;;;5075682;28;20103;-80
2021/12/22 06:36:42;;;;;;;38.40;16.33;;;-1.60;99.90;;;;;;5074283;28;20051;-80
2021/12/22 06:39:08;;;;;;;36.78;16.48;;;-1.60;99.90;;;;;;5075717;28;20077;-80
2021/12/22 06:41:34;;;;;;;45.60;18.25;;;-1.50;99.90;;;;;;5075459;28;20025;-80
2021/12/22 06:44:00;;;;;;;34.30;16.17;;;-1.50;99.90;;;;;;5075321;28;20384;-80
2021/12/22 06:46:26;;;;;;;34.92;16.80;;;-1.60;99.90;;;;;;5075201;28;20032;-80
2021/12/22 06:48:52;;;;;;;32.38;16.05;;;-1.50;99.90;;;;;;5075438;28;20033;-80
2021/12/22 06:51:17;;;;;;;30.05;15.60;;;-1.60;99.90;;;;;;5075332;28;20043;-80
2021/12/22 06:53:43;;;;;;;36.58;17.13;;;-1.60;99.90;;;;;;5075317;28;20120;-80
2021/12/22 06:56:09;;;;;;;37.55;15.38;;;-1.60;99.90;;;;;;5074772;28;20086;-80
2021/12/22 06:58:35;;;;;;;33.33;15.60;;;-1.60;99.90;;;;;;5074900;28;20025;-80
2021/12/22 07:01:01;;;;;;;40.70;16.10;;;-1.60;99.90;;;;;;5075010;28;20032;-80
2021/12/22 07:03:26;;;;;;;36.70;15.95;;;-1.60;99.90;;;;;;5075171;28;20024;-80
2021/12/22 07:05:52;;;;;;;36.65;17.42;;;-1.50;99.90;;;;;;5074910;28;20377;-79
2021/12/22 07:08:18;;;;;;;36.67;17.13;;;-1.50;99.90;;;;;;5074945;28;20385;-79
2021/12/22 07:10:44;;;;;;;33.05;16.00;;;-1.70;99.90;;;;;;5074735;28;20048;-79
2021/12/22 07:13:11;;;;;;;36.60;16.98;;;-1.70;99.90;;;;;;5073312;28;20055;-80
2021/12/22 07:15:37;;;;;;;35.42;17.17;;;-1.70;99.90;;;;;;5074923;28;20041;-80
2021/12/22 07:18:08;;;;;;;40.72;16.88;;;-1.80;99.90;;;;;;5075095;28;20048;-79
2021/12/22 07:20:34;;;;;;;35.58;16.88;;;-1.80;99.90;;;;;;5073392;28;20469;-79
2021/12/22 07:23:00;;;;;;;35.95;18.08;;;-1.80;99.90;;;;;;5073413;28;20028;-80
2021/12/22 07:25:26;;;;;;;47.67;18.77;;;-1.80;99.90;;;;;;5074361;28;20066;-78
2021/12/22 07:27:52;;;;;;;45.15;18.77;;;-1.80;99.90;;;;;;5074392;28;20481;-79
2021/12/22 07:30:17;;;;;;;35.83;16.38;;;-1.70;99.90;;;;;;5073400;28;20051;-79
2021/12/22 07:32:43;;;;;;;48.10;17.27;;;-1.80;99.90;;;;;;5074509;28;20020;-80
2021/12/22 07:35:17;;;;;;;34.90;17.10;;;-1.80;99.90;;;;;;5074767;28;20565;-80
2021/12/22 07:37:56;;;;;;;39.97;17.20;;;-1.80;99.90;;;;;;5074134;28;20020;-79
2021/12/22 07:40:22;;;;;;;36.00;16.20;;;-1.80;99.90;;;;;;5074515;28;20120;-76
2021/12/22 07:42:47;;;;;;;51.60;16.70;;;-1.80;99.90;;;;;;5073995;28;20111;-77
2021/12/22 07:45:13;;;;;;;38.92;16.67;;;-1.70;99.90;;;;;;5074219;28;20043;-77
2021/12/22 07:47:39;;;;;;;58.38;19.02;;;-1.80;99.90;;;;;;5072838;28;20082;-79
2021/12/22 07:50:06;;;;;;;41.33;17.85;;;-1.70;99.90;;;;;;5056347;28;20477;-79
2021/12/22 07:52:32;;;;;;;47.83;17.35;;;-1.70;99.90;;;;;;5074163;28;20021;-79
2021/12/22 07:54:59;;;;;;;36.15;18.30;;;-1.70;99.90;;;;;;5074331;28;20530;-79
2021/12/22 07:57:24;;;;;;;42.30;17.00;;;-1.80;99.90;;;;;;5073537;28;20469;-79
2021/12/22 07:59:51;;;;;;;39.40;17.63;;;-1.80;99.90;;;;;;5074119;28;20040;-77
2021/12/22 08:02:17;;;;;;;38.50;17.10;;;-1.80;99.90;;;;;;5072695;28;20037;-80
2021/12/22 08:04:43;;;;;;;39.03;18.52;;;-1.80;99.90;;;;;;5072664;28;20124;-80
2021/12/22 08:07:08;;;;;;;46.63;18.35;;;-1.70;99.90;;;;;;5072854;28;20099;-78
2021/12/22 08:09:35;;;;;;;42.00;17.27;;;-1.70;99.90;;;;;;5073608;28;20036;-78
2021/12/22 08:12:04;;;;;;;40.95;19.08;;;-1.60;99.90;;;;;;5073678;28;20486;-78
2021/12/22 08:14:39;;;;;;;43.08;18.33;;;-1.50;99.90;;;;;;5073756;28;20024;-75
2021/12/22 08:17:06;;;;;;;37.05;17.17;;;-1.50;99.90;;;;;;5073725;28;20174;-78
2021/12/22 08:19:32;;;;;;;44.53;18.42;;;-1.40;99.90;;;;;;5073405;28;20040;-78
2021/12/22 08:21:58;;;;;;;52.60;18.00;;;-1.40;99.90;;;;;;5073838;28;20040;-78
2021/12/22 08:24:24;;;;;;;34.95;17.77;;;-1.30;99.90;;;;;;5073637;28;20029;-80
2021/12/22 08:26:50;;;;;;;45.78;19.30;;;-1.30;99.90;;;;;;5073373;28;20480;-79
2021/12/22 08:29:17;;;;;;;46.50;18.85;;;-1.20;99.90;;;;;;5073337;28;20035;-80
2021/12/22 08:31:42;;;;;;;46.38;19.33;;;-1.10;99.90;;;;;;5072068;28;20042;-80
2021/12/22 08:34:10;;;;;;;42.83;18.65;;;-0.90;99.90;;;;;;5073312;28;20372;-80
2021/12/22 08:39:40;;;;;;;54.22;18.58;;;-0.90;99.90;;;;;;5070788;28;20481;-80
2021/12/22 08:42:06;;;;;;;50.70;17.20;;;-0.90;99.90;;;;;;5054518;28;20086;-80
2021/12/22 08:44:33;;;;;;;39.10;17.83;;;-0.90;99.90;;;;;;5060941;28;20052;-80
2021/12/22 08:46:59;;;;;;;41.60;17.48;;;-0.80;99.90;;;;;;5071957;28;20051;-79
2021/12/22 08:49:25;;;;;;;45.63;17.52;;;-0.70;99.90;;;;;;5073224;28;20520;-80
2021/12/22 08:51:51;;;;;;;33.88;16.40;;;-0.50;99.90;;;;;;5071941;28;20036;-80
2021/12/22 08:54:18;;;;;;;50.67;16.50;;;-0.40;99.90;;;;;;5072958;28;20024;-80
2021/12/22 08:56:44;;;;;;;43.03;16.73;;;-0.40;99.90;;;;;;5072922;28;20032;-80
2021/12/22 08:59:12;;;;;;;42.03;16.92;;;-0.10;99.90;;;;;;5072970;28;20357;-79
2021/12/22 09:01:38;;;;;;;53.50;17.35;;;0.30;99.90;;;;;;5073080;28;20074;-80
2021/12/22 09:04:04;;;;;;;41.38;15.20;;;0.40;99.90;;;;;;5073151;28;20035;-79
2021/12/22 09:06:30;;;;;;;46.53;16.83;;;0.60;99.90;;;;;;5071589;28;20039;-79
2021/12/22 09:08:58;;;;;;;28.25;14.82;;;0.90;99.90;;;;;;5054306;28;20031;-80
2021/12/22 09:11:24;;;;;;;31.02;15.48;;;1.00;99.90;;;;;;5072776;28;20480;-80
2021/12/22 09:13:52;;;;;;;32.55;15.90;;;1.10;99.90;;;;;;5071534;28;20029;-81
2021/12/22 09:16:17;;;;;;;40.83;14.70;;;1.20;99.90;;;;;;5073118;28;20115;-80
2021/12/22 09:18:43;;;;;;;31.58;16.30;;;1.30;99.90;;;;;;5071107;28;20464;-80
2021/12/22 09:21:11;;;;;;;37.72;15.38;;;1.30;99.90;;;;;;5073018;28;20035;-80
2021/12/22 09:23:37;;;;;;;44.80;14.73;;;1.70;99.90;;;;;;5072339;28;20491;-77
2021/12/22 09:26:04;;;;;;;39.70;14.75;;;2.00;99.90;;;;;;5072441;28;20016;-81
2021/12/22 09:28:29;;;;;;;28.83;13.30;;;2.40;99.90;;;;;;5072433;28;20150;-80
2021/12/22 09:30:55;;;;;;;26.75;13.10;;;2.80;99.90;;;;;;5054751;28;20045;-74
2021/12/22 09:33:23;;;;;;;35.60;14.63;;;3.00;99.90;;;;;;5072811;28;20027;-75
2021/12/22 09:35:49;;;;;;;37.55;13.50;;;3.10;99.90;;;;;;5072553;28;20086;-77
2021/12/22 09:38:16;;;;;;;45.33;13.75;;;3.20;99.90;;;;;;5071155;28;20016;-77
2021/12/22 09:40:42;;;;;;;35.50;14.35;;;3.10;99.90;;;;;;5072598;28;20025;-79
2021/12/22 09:43:08;;;;;;;42.05;14.98;;;3.30;99.90;;;;;;5071638;28;20040;-81
2021/12/22 09:45:41;;;;;;;31.00;14.20;;;3.30;99.90;;;;;;5072295;28;20389;-79
2021/12/22 09:53:13;;;;;;;34.30;13.02;;;4.80;99.90;;;;;;5070963;28;20139;-79
2021/12/22 09:55:39;;;;;;;39.35;12.65;;;4.60;99.90;;;;;;5071394;28;20024;-78
2021/12/22 09:58:05;;;;;;;26.02;11.52;;;4.50;99.90;;;;;;5072521;28;20028;-74
2021/12/22 10:00:34;;;;;;;42.13;13.05;;;4.40;99.90;;;;;;5072465;28;20392;-83
2021/12/22 10:03:00;;;;;;;23.15;11.70;;;4.90;99.90;;;;;;5054549;28;20127;-83
2021/12/22 10:05:26;;;;;;;30.08;12.18;;;4.60;99.90;;;;;;5072380;28;20109;-83
2021/12/22 10:08:09;;;;;;;30.08;11.90;;;4.90;99.90;;;;;;5071849;28;20162;-83
2021/12/22 10:10:38;;;;;;;41.28;11.88;;;5.40;99.90;;;;;;5050896;28;20049;-83
2021/12/22 10:13:20;;;;;;;38.63;11.77;;;4.80;99.90;;;;;;5051088;28;20032;-81
2021/12/22 10:15:46;;;;;;;26.02;11.32;;;5.20;99.90;;;;;;5052151;28;20036;-81
2021/12/22 10:18:18;;;;;;;28.00;12.02;;;5.20;99.90;;;;;;5051089;28;20120;-84
2021/12/22 10:20:47;;;;;;;32.25;10.82;;;5.80;99.90;;;;;;5050583;28;20039;-75
2021/12/22 10:23:27;;;;;;;28.98;12.30;;;6.20;99.90;;;;;;5052361;28;20029;-82
2021/12/22 10:26:16;;;;;;;29.08;11.07;;;6.60;99.90;;;;;;5059413;28;20032;-80
2021/12/22 10:28:46;;;;;;;31.38;11.18;;;6.90;99.90;;;;;;5072306;28;20473;-81
2021/12/22 10:31:13;;;;;;;22.83;10.15;;;6.30;99.90;;;;;;5074951;28;20041;-82
2021/12/22 10:33:41;;;;;;;23.83;10.95;;;5.50;99.90;;;;;;5075905;28;20047;-83
2021/12/22 10:36:11;;;;;;;27.80;11.82;;;5.50;99.90;;;;;;5075355;28;20024;-82
2021/12/22 10:38:37;;;;;;;33.63;13.23;;;4.90;99.90;;;;;;5075474;28;20048;-79
2021/12/22 10:41:07;;;;;;;31.30;11.98;;;4.60;99.90;;;;;;5075525;28;20476;-83
2021/12/22 10:43:38;;;;;;;35.20;12.82;;;5.00;99.90;;;;;;5075740;28;20031;-83
2021/12/22 10:46:05;;;;;;;27.20;12.00;;;5.20;99.90;;;;;;5058353;28;20033;-83
2021/12/22 10:51:30;;;;;;;28.60;12.43;;;4.40;99.90;;;;;;5074919;28;20040;-81
2021/12/22 10:53:56;;;;;;;30.48;11.73;;;4.60;99.90;;;;;;5075435;28;20381;-84
2021/12/22 10:56:26;;;;;;;34.92;12.98;;;4.50;99.90;;;;;;5073992;28;20040;-82
2021/12/22 10:59:04;;;;;;;32.15;11.95;;;4.20;99.90;;;;;;5074062;28;20028;-82
2021/12/22 11:01:30;;;;;;;37.35;12.90;;;3.90;99.90;;;;;;5075202;28;20102;-82
2021/12/22 11:04:04;;;;;;;29.02;13.25;;;3.80;99.90;;;;;;5075149;28;20428;-82
2021/12/22 11:06:33;;;;;;;32.70;12.93;;;4.30;99.90;;;;;;5074999;28;20036;-83
2021/12/22 11:09:00;;;;;;;28.42;11.60;;;5.30;99.90;;;;;;5074870;28;20020;-82
2021/12/22 11:11:37;;;;;;;25.90;12.25;;;6.10;99.90;;;;;;5074917;28;20036;-82
2021/12/22 11:14:17;;;;;;;30.98;12.57;;;7.10;99.90;;;;;;5073962;28;20078;-82
2021/12/22 11:17:17;;;;;;;28.10;11.00;;;7.70;99.90;;;;;;5074898;28;20119;-82
2021/12/22 11:19:57;;;;;;;23.92;10.52;;;7.80;99.90;;;;;;5073313;28;20115;-82
2021/12/22 11:22:52;;;;;;;25.30;11.25;;;7.50;99.90;;;;;;5074934;28;20497;-80
2021/12/22 11:25:21;;;;;;;27.10;11.10;;;7.80;99.90;;;;;;5074696;28;20074;-83
2021/12/22 11:27:49;;;;;;;26.45;11.65;;;8.00;99.80;;;;;;5074873;28;20025;-83
2021/12/22 11:30:15;;;;;;;29.13;11.93;;;8.20;99.90;;;;;;5074620;28;20028;-83
2021/12/22 11:32:43;;;;;;;23.27;10.93;;;8.80;98.30;;;;;;5074403;28;20021;-83
2021/12/22 11:35:11;;;;;;;21.48;10.07;;;9.60;98.80;;;;;;5074321;28;20020;-83
2021/12/22 11:37:37;;;;;;;19.63;9.85;;;9.50;97.90;;;;;;5074702;28;20037;-83
2021/12/22 11:40:08;;;;;;;21.10;10.85;;;9.30;97.10;;;;;;5074521;28;20016;-83
2021/12/22 11:42:37;;;;;;;20.52;10.82;;;10.20;96.30;;;;;;5074306;28;20033;-83
2021/12/22 11:45:15;;;;;;;21.73;11.07;;;10.70;95.50;;;;;;5074261;28;20373;-84
2021/12/22 11:47:44;;;;;;;23.58;11.95;;;11.20;94.40;;;;;;5073839;28;20119;-83
2021/12/22 11:50:23;;;;;;;18.85;9.90;;;11.70;93.90;;;;;;5073154;28;20032;-82
2021/12/22 11:52:55;;;;;;;21.77;10.45;;;10.70;93.80;;;;;;5072934;28;20024;-83
2021/12/22 11:55:41;;;;;;;21.75;10.52;;;9.80;95.20;;;;;;5074166;28;20039;-82
2021/12/22 11:58:34;;;;;;;15.27;9.10;;;10.10;94.60;;;;;;5072593;28;20029;-83
2021/12/22 12:01:08;;;;;;;15.80;9.27;;;10.40;94.90;;;;;;5074100;28;20028;-83
2021/12/22 12:03:43;;;;;;;16.33;9.30;;;10.50;94.10;;;;;;5073923;28;20373;-84
2021/12/22 12:06:16;;;;;;;21.02;8.38;;;11.00;94.60;;;;;;5073960;28;20109;-83
2021/12/22 12:08:55;;;;;;;30.55;15.98;;;11.80;92.60;;;;;;5073622;28;20500;-84
2021/12/22 12:11:35;;;;;;;18.05;9.18;;;12.00;92.30;;;;;;5073754;28;20106;-83
2021/12/22 12:14:09;;;;;;;22.60;9.48;;;11.70;92.70;;;;;;5073764;28;20028;-83
2021/12/22 12:22:28;;;;;;;17.60;10.30;;;10.10;92.90;;;;;;5073608;28;20068;-83
2021/12/22 12:24:56;;;;;;;22.02;10.35;;;9.40;93.80;;;;;;5074036;28;20209;-81
2021/12/22 12:27:53;;;;;;;24.05;9.93;;;9.90;93.40;;;;;;5072860;28;20033;-82
2021/12/22 12:30:39;;;;;;;18.98;10.25;;;9.30;93.70;;;;;;5073293;28;20119;-83
2021/12/22 12:33:07;;;;;;;22.90;10.18;;;9.20;94.10;;;;;;5072982;28;20381;-78
2021/12/22 12:35:35;;;;;;;23.55;9.70;;;9.30;94.30;;;;;;5073235;28;20035;-82
2021/12/22 12:38:18;;;;;;;23.00;9.68;;;9.30;94.40;;;;;;5073280;28;20039;-82
2021/12/22 12:41:05;;;;;;;18.30;9.60;;;10.40;93.40;;;;;;5073436;28;20416;-83
2021/12/22 12:43:43;;;;;;;26.05;10.48;;;10.70;93.20;;;;;;5071954;28;20025;-83
2021/12/22 12:46:24;;;;;;;25.35;11.25;;;10.80;92.30;;;;;;5072849;28;20043;-83
2021/12/22 12:49:07;;;;;;;19.67;11.20;;;10.30;92.40;;;;;;5073254;28;20044;-84
2021/12/22 12:51:54;;;;;;;23.13;10.15;;;9.20;94.00;;;;;;5073215;28;20043;-85
2021/12/22 12:54:22;;;;;;;19.98;9.20;;;9.60;93.60;;;;;;5071431;28;20055;-86
2021/12/22 12:56:54;;;;;;;21.92;10.45;;;9.90;93.40;;;;;;5073062;28;20029;-86
2021/12/22 12:59:45;;;;;;;15.18;8.48;;;10.40;92.80;;;;;;5072933;28;20047;-83
2021/12/22 13:02:18;;;;;;;15.18;9.30;;;10.40;93.00;;;;;;5068326;28;20064;-84
2021/12/22 13:04:44;;;;;;;18.90;10.57;;;10.30;93.10;;;;;;5072974;28;20066;-85